ICT,Max TemperatureF,Mean TemperatureF,Min TemperatureF,Max Dew PointF,MeanDew PointF,Min DewpointF,Max Humidity, Mean Humidity, Min Humidity, Max Sea Level PressureIn, Mean Sea Level PressureIn, Min Sea Level PressureIn, Max VisibilityMiles, Mean VisibilityMiles, Min VisibilityMiles, Max Wind SpeedMPH, Mean Wind SpeedMPH, Max Gust SpeedMPH,PrecipitationIn, CloudCover, Events, WindDirDegrees
2013-10-1,89,84,78,78,75,70,89,77,55,29.89,29.80,29.74,6,5,3,16,9,,0.08,6,Rain,268
2013-10-2,89,82,75,78,75,73,94,79,64,29.92,29.86,29.77,6,6,3,15,4,,0.00,4,Rain,284
2013-10-3,85,78,71,77,74,72,96,84,70,30.01,29.89,29.80,6,4,1,20,6,34,1.14,6,Rain,275
2013-10-4,81,76,71,77,74,72,94,82,74,29.95,29.88,29.81,6,4,0,24,11,36,0.83,6,Rain,288
2013-10-5,84,78,71,76,73,72,94,82,70,29.92,29.86,29.80,4,4,1,21,13,31,0.98,6,Rain,280
2013-10-6,83,78,73,75,73,72,94,83,74,29.89,29.82,29.74,6,4,0,25,12,40,1.65,7,Rain,284
2013-10-7,82,79,76,76,72,70,94,76,66,29.89,29.82,29.77,6,5,3,23,16,,0.24,6,Rain,267
2013-10-8,80,78,75,73,72,70,94,85,74,29.92,29.86,29.80,6,4,0,17,8,33,1.22,6,Rain,256
2013-10-9,85,79,73,76,74,72,94,83,74,29.92,29.87,29.80,6,4,0,14,6,28,0.83,6,Rain,265
2013-10-10,88,79,70,77,73,72,95,84,66,29.95,29.89,29.81,6,6,5,14,3,,0.02,4,Rain,294
2013-10-11,87,80,74,77,74,72,95,80,66,29.92,29.87,29.78,6,6,6,13,3,,0.00,4,,291
2013-10-12,87,82,76,76,74,72,90,77,62,29.89,29.85,29.79,6,6,5,20,6,,0.00,4,Rain,296
2013-10-13,87,82,77,78,74,73,89,79,70,29.92,29.85,29.78,6,6,4,18,9,,0.04,5,Rain,290
2013-10-14,89,82,76,78,75,72,84,77,66,29.89,29.83,29.74,6,5,2,15,10,,0.08,6,Rain,290
2013-10-15,88,82,77,77,75,73,84,77,64,29.89,29.82,29.74,6,5,2,16,9,,0.16,5,Rain,285
2013-10-16,88,82,76,77,75,73,94,83,64,29.89,29.81,29.74,6,6,2,14,5,,0.20,6,Rain,283
2013-10-17,87,80,73,79,75,73,95,86,66,29.89,29.82,29.74,6,6,2,10,1,,0.75,6,Rain-Thunderstorm,249
2013-10-18,89,82,75,77,75,73,99,81,62,29.92,29.85,29.77,6,6,4,10,2,,0.24,6,Rain,334
2013-10-19,86,78,71,77,74,70,94,84,58,29.95,29.89,29.82,6,4,1,13,4,,0.31,6,Rain,263
2013-10-20,84,79,74,76,74,72,97,82,61,29.95,29.88,29.80,6,6,4,14,3,,0.04,6,Rain,272
2013-10-21,86,79,72,76,74,72,94,84,66,29.89,29.84,29.77,6,5,2,14,2,,0.08,6,Rain,267
2013-10-22,89,80,71,77,74,70,100,81,52,29.92,29.85,29.77,7,6,2,13,2,,0.98,5,Rain-Thunderstorm,94
2013-10-23,89,82,75,77,73,70,97,78,49,29.95,29.86,29.77,6,6,3,13,2,,0.01,5,Rain-Thunderstorm,84
2013-10-24,89,81,73,76,74,72,94,77,54,29.92,29.85,29.77,6,5,4,10,3,,1.06,6,,51
2013-10-25,89,82,75,77,74,72,94,82,57,29.95,29.86,29.78,6,5,1,13,3,,1.06,5,Rain-Thunderstorm,69
2013-10-26,88,82,75,78,74,72,94,84,62,29.95,29.87,29.80,6,5,1,13,3,24,0.87,6,Rain-Thunderstorm,101
2013-10-27,86,78,70,76,74,72,96,83,62,29.92,29.88,29.80,6,5,2,12,3,,0.39,6,Rain,80
2013-10-28,87,80,74,75,73,72,96,91,79,29.95,29.90,29.83,6,4,1,14,3,,1.46,6,Rain,100
2013-10-29,89,82,74,77,74,72,96,80,58,29.95,29.90,29.83,6,6,4,14,4,,0.08,5,Rain,102
2013-10-30,89,80,71,79,74,70,95,81,52,29.95,29.89,29.80,6,5,3,12,2,,0.08,6,Rain-Thunderstorm,75
2013-10-31,88,82,75,78,74,72,96,82,62,29.95,29.88,29.80,6,5,1,12,2,,0.59,4,Rain-Thunderstorm,9